Time;durP1;ratioP1;P1;durP2;ratioP2;P2;SDS_P1;SDS_P2;PMS_P1;PMS_P2;Temp;Humidity;BMP_temperature;BMP_pressure;BME280_temperature;BME280_humidity;BME280_pressure;Samples;Min_cycle;Max_cycle;Signal;HPM_P1;HPM_P2
2022/05/17 00:00:53;;;;;;;3.90;2.52;;;;;;;5.32;79.40;100123.28;1742094;82;21505;-70
2022/05/17 00:03:20;;;;;;;5.12;3.00;;;;;;;5.38;79.79;100130.99;1742330;82;20951;-69
2022/05/17 00:05:47;;;;;;;7.05;2.90;;;;;;;5.40;80.17;100129.22;1742174;82;21691;-69
2022/05/17 00:08:14;;;;;;;5.67;3.10;;;;;;;5.46;80.42;100126.52;1742201;82;21490;-70
2022/05/17 00:10:42;;;;;;;8.60;2.60;;;;;;;5.50;80.20;100128.20;1742251;82;21123;-69
2022/05/17 00:13:10;;;;;;;5.12;2.50;;;;;;;5.52;79.95;100121.21;1736072;82;21073;-70
2022/05/17 00:15:41;;;;;;;7.28;3.08;;;;;;;5.53;79.98;100125.53;1712551;83;21080;-69
2022/05/17 00:18:10;;;;;;;5.40;2.42;;;;;;;5.55;80.28;100119.84;1712831;83;21627;-69
2022/05/17 00:20:39;;;;;;;7.12;2.80;;;;;;;5.59;80.70;100125.44;1712726;83;21128;-69
2022/05/17 00:23:06;;;;;;;7.70;2.90;;;;;;;5.61;80.67;100118.45;1712602;83;21922;-68
2022/05/17 00:25:34;;;;;;;7.60;2.72;;;;;;;5.64;80.67;100120.99;1712470;83;21049;-69
2022/05/17 00:28:01;;;;;;;10.30;3.42;;;;;;;5.65;80.84;100120.09;1715743;83;21061;-70
2022/05/17 00:30:28;;;;;;;9.60;2.58;;;;;;;5.59;80.94;100107.16;1718178;83;21069;-69
2022/05/17 00:32:55;;;;;;;10.43;2.52;;;;;;;5.73;81.26;100117.79;1718148;83;21778;-70
2022/05/17 00:35:21;;;;;;;5.62;2.65;;;;;;;5.79;81.58;100116.39;1718437;83;21745;-70
2022/05/17 00:37:47;;;;;;;6.30;2.65;;;;;;;5.84;81.40;100114.55;1718041;83;21560;-70
2022/05/17 00:40:14;;;;;;;5.75;3.12;;;;;;;5.89;81.01;100116.66;1718361;83;21057;-69
2022/05/17 00:42:40;;;;;;;6.62;2.95;;;;;;;5.93;80.50;100119.61;1718573;83;21026;-69
2022/05/17 00:45:09;;;;;;;8.48;3.12;;;;;;;5.98;80.02;100112.60;1718306;83;21057;-70
2022/05/17 00:47:45;;;;;;;6.65;3.15;;;;;;;6.03;79.54;100109.90;1718565;83;21116;-69
2022/05/17 00:50:32;;;;;;;12.10;3.55;;;;;;;6.07;79.18;100106.31;1718478;83;21050;-70
2022/05/17 00:53:05;;;;;;;7.80;3.42;;;;;;;6.13;78.82;100105.35;1717500;83;21127;-70
2022/05/17 00:55:39;;;;;;;7.80;3.52;;;;;;;6.18;78.56;100106.12;1742901;82;21073;-70
2022/05/17 00:58:14;;;;;;;11.50;4.58;;;;;;;6.21;78.26;100101.70;1748161;82;21028;-69
2022/05/17 01:00:52;;;;;;;6.58;3.02;;;;;;;6.27;77.88;100108.55;1747227;82;21553;-70
2022/05/17 01:03:18;;;;;;;8.98;3.60;;;;;;;6.30;77.78;100103.25;1748064;82;21086;-69
2022/05/17 01:05:47;;;;;;;6.00;3.15;;;;;;;6.34;77.67;100093.15;1748193;82;21088;-69
2022/05/17 01:08:15;;;;;;;9.43;4.05;;;;;;;6.38;77.63;100096.12;1748479;82;20994;-69
2022/05/17 01:10:41;;;;;;;7.15;3.50;;;;;;;6.43;77.68;100095.58;1748269;82;21022;-69
2022/05/17 01:15:54;;;;;;;9.48;4.00;;;;;;;6.50;77.11;100082.78;1747978;82;21010;-70
2022/05/17 01:18:20;;;;;;;11.65;4.10;;;;;;;6.56;77.01;100083.57;1748251;82;21054;-69
2022/05/17 01:20:47;;;;;;;9.38;3.50;;;;;;;6.60;76.95;100077.34;1748022;82;21034;-70
2022/05/17 01:23:14;;;;;;;6.95;3.60;;;;;;;6.63;76.83;100079.92;1748319;82;21057;-69
2022/05/17 01:25:45;;;;;;;14.10;3.83;;;;;;;6.65;76.71;100075.52;1748543;82;21237;-68
2022/05/17 01:28:22;;;;;;;8.43;4.10;;;;;;;6.68;76.50;100082.84;1747261;81;21585;-69
2022/05/17 01:30:49;;;;;;;9.38;3.98;;;;;;;6.70;76.44;100074.52;1748456;82;21113;-68
2022/05/17 01:33:19;;;;;;;10.30;4.22;;;;;;;6.73;76.25;100081.43;1748217;82;21034;-69
2022/05/17 01:35:48;;;;;;;5.97;3.47;;;;;;;6.71;76.03;100076.67;1748525;82;21061;-70
2022/05/17 01:38:14;;;;;;;9.50;3.60;;;;;;;6.69;75.81;100070.61;1748207;82;20998;-69
2022/05/17 01:40:41;;;;;;;6.22;3.20;;;;;;;6.70;75.57;100069.73;1748265;82;21061;-67
2022/05/17 01:43:08;;;;;;;7.55;2.95;;;;;;;6.67;75.55;100072.39;1748604;82;21003;-69
2022/05/17 01:45:35;;;;;;;7.72;3.12;;;;;;;6.62;75.86;100072.95;1748222;82;21558;-70
2022/05/17 01:48:01;;;;;;;6.17;3.10;;;;;;;6.53;76.03;100062.23;1748259;82;21053;-70
2022/05/17 01:50:28;;;;;;;6.67;3.17;;;;;;;6.54;76.17;100064.42;1748142;82;21717;-69
2022/05/17 01:52:55;;;;;;;9.10;3.75;;;;;;;6.50;76.45;100068.84;1745021;81;21089;-69
2022/05/17 01:55:22;;;;;;;8.15;3.62;;;;;;;6.44;76.93;100079.00;1747977;82;21041;-70
2022/05/17 01:57:49;;;;;;;11.15;4.45;;;;;;;6.38;77.24;100075.20;1748034;82;21045;-69
2022/05/17 02:00:20;;;;;;;12.15;5.72;;;;;;;6.32;77.51;100076.62;1748207;82;21541;-68
2022/05/17 02:02:46;;;;;;;11.03;5.10;;;;;;;6.24;77.40;100075.94;1747996;82;21140;-70
2022/05/17 02:05:15;;;;;;;16.30;5.85;;;;;;;6.17;77.45;100071.27;1748065;82;21017;-69
2022/05/17 02:07:41;;;;;;;13.25;5.40;;;;;;;6.12;77.78;100067.00;1747920;82;21029;-68
2022/05/17 02:10:11;;;;;;;12.90;5.78;;;;;;;6.05;77.96;100072.38;1748295;82;21088;-70
2022/05/17 02:12:39;;;;;;;17.48;5.97;;;;;;;5.99;78.15;100072.48;1748146;82;21030;-70
2022/05/17 02:15:07;;;;;;;18.40;5.62;;;;;;;5.93;78.19;100075.17;1718236;83;21912;-69
2022/05/17 02:17:37;;;;;;;12.98;5.83;;;;;;;5.86;78.35;100077.03;1718087;83;21100;-69
2022/05/17 02:20:08;;;;;;;14.25;6.45;;;;;;;5.80;78.34;100071.09;1718506;83;21585;-69
2022/05/17 02:22:34;;;;;;;16.90;6.67;;;;;;;5.73;78.50;100072.06;1718621;83;21056;-69
2022/05/17 02:25:01;;;;;;;13.78;5.58;;;;;;;5.65;78.48;100063.92;1718209;83;21061;-69
2022/05/17 02:27:28;;;;;;;10.68;4.60;;;;;;;5.59;78.75;100071.89;1718160;83;21493;-70
2022/05/17 02:29:55;;;;;;;14.23;4.85;;;;;;;5.51;79.46;100072.45;1718162;83;21088;-70
2022/05/17 02:32:23;;;;;;;12.15;3.80;;;;;;;5.45;80.16;100071.23;1718134;83;21582;-70
2022/05/17 02:34:51;;;;;;;9.40;4.15;;;;;;;5.40;80.93;100076.98;1718366;83;21093;-70
2022/05/17 02:37:17;;;;;;;11.93;5.30;;;;;;;5.35;81.60;100069.69;1718262;83;21300;-69
2022/05/17 02:39:45;;;;;;;15.80;6.17;;;;;;;5.32;81.61;100072.36;1718391;83;21360;-69
2022/05/17 02:42:12;;;;;;;11.12;5.28;;;;;;;5.26;81.83;100075.46;1718416;83;21025;-69
2022/05/17 02:44:39;;;;;;;15.75;5.65;;;;;;;5.23;82.40;100075.52;1718311;83;21534;-69
2022/05/17 02:47:07;;;;;;;11.40;5.67;;;;;;;5.19;82.93;100067.31;1718202;83;21092;-69
2022/05/17 02:49:34;;;;;;;11.83;5.85;;;;;;;5.20;83.33;100074.28;1692101;83;21584;-69
2022/05/17 02:52:02;;;;;;;16.00;6.17;;;;;;;5.20;83.24;100069.05;1718369;83;21204;-69
2022/05/17 02:54:29;;;;;;;12.00;6.33;;;;;;;5.21;83.37;100071.21;1718371;83;21056;-70
2022/05/17 02:56:57;;;;;;;12.98;6.53;;;;;;;5.24;83.38;100073.34;1718159;83;21089;-69
2022/05/17 02:59:23;;;;;;;13.65;7.15;;;;;;;5.33;83.60;100070.15;1718227;83;21045;-68
2022/05/17 03:01:50;;;;;;;14.07;6.45;;;;;;;5.40;83.57;100071.77;1718266;83;21616;-70
2022/05/17 03:04:17;;;;;;;12.30;5.92;;;;;;;5.51;83.55;100069.84;1735106;82;22217;-69
2022/05/17 03:06:44;;;;;;;23.45;6.90;;;;;;;5.64;83.56;100066.12;1748166;82;21549;-68
2022/05/17 03:09:13;;;;;;;11.73;5.95;;;;;;;5.81;83.66;100066.27;1748099;82;21050;-69
2022/05/17 03:11:43;;;;;;;13.08;5.53;;;;;;;5.96;83.08;100064.71;1748226;82;21077;-69
2022/05/17 03:14:14;;;;;;;13.78;6.33;;;;;;;6.13;82.21;100054.36;1748344;82;21049;-69
2022/05/17 03:16:40;;;;;;;16.82;6.28;;;;;;;6.30;81.72;100057.06;1725989;82;21242;-70
2022/05/17 03:19:09;;;;;;;17.20;6.10;;;;;;;6.49;80.77;100052.30;1718130;83;21487;-69
2022/05/17 03:21:35;;;;;;;10.70;6.00;;;;;;;6.67;80.58;100053.66;1718096;83;21036;-70
2022/05/17 03:24:03;;;;;;;15.00;6.12;;;;;;;6.82;80.02;100049.81;1718248;83;21057;-70
2022/05/17 03:26:29;;;;;;;13.20;6.28;;;;;;;6.96;79.27;100035.55;1718093;83;21184;-71
2022/05/17 03:28:58;;;;;;;12.15;6.00;;;;;;;7.10;78.27;100040.00;1718282;83;21505;-69
2022/05/17 03:31:26;;;;;;;14.13;5.40;;;;;;;7.24;77.15;100047.06;1718103;83;21168;-70
2022/05/17 03:33:53;;;;;;;14.58;5.75;;;;;;;7.43;75.93;100054.46;1718651;83;21620;-69
2022/05/17 03:36:20;;;;;;;11.20;5.12;;;;;;;7.69;74.29;100055.97;1718094;83;21069;-69
2022/05/17 03:38:47;;;;;;;8.23;4.62;;;;;;;8.24;72.29;100052.75;1718307;83;21073;-69
2022/05/17 03:41:15;;;;;;;8.93;4.12;;;;;;;8.54;69.04;100050.56;1718337;83;21809;-68
2022/05/17 03:43:42;;;;;;;13.00;4.60;;;;;;;8.68;67.10;100044.89;1718197;83;21526;-70
2022/05/17 03:46:12;;;;;;;11.55;4.75;;;;;;;8.78;63.88;100037.59;1718274;83;21061;-70
2022/05/17 03:48:39;;;;;;;10.75;4.00;;;;;;;8.87;63.59;100046.49;1718669;83;21061;-69
2022/05/17 03:51:16;;;;;;;9.43;4.08;;;;;;;8.96;62.35;100050.14;1718423;83;21013;-71
2022/05/17 03:53:43;;;;;;;8.25;3.47;;;;;;;9.06;61.79;100047.22;1718405;83;21841;-70
2022/05/17 03:56:11;;;;;;;7.78;3.47;;;;;;;9.16;60.43;100043.41;1718492;83;21096;-69
2022/05/17 03:58:37;;;;;;;10.03;3.80;;;;;;;9.27;60.04;100045.23;1718212;83;21220;-69
2022/05/17 04:01:04;;;;;;;7.78;3.40;;;;;;;9.38;59.58;100046.17;1718323;83;21583;-70
2022/05/17 04:03:32;;;;;;;6.12;3.30;;;;;;;9.49;58.75;100040.56;1718458;83;21053;-69
2022/05/17 04:05:59;;;;;;;7.72;3.30;;;;;;;9.62;58.42;100045.81;1718180;83;21854;-70
2022/05/17 04:08:25;;;;;;;8.93;3.20;;;;;;;9.74;57.24;100033.54;1718060;83;21072;-71
2022/05/17 04:10:54;;;;;;;8.33;3.27;;;;;;;9.86;56.73;100037.50;1718156;83;21128;-69
2022/05/17 04:13:21;;;;;;;10.98;3.33;;;;;;;9.99;55.78;100029.58;1718123;83;21045;-69
2022/05/17 04:15:48;;;;;;;6.33;3.42;;;;;;;10.13;55.05;100031.70;1718387;83;21052;-70
2022/05/17 04:18:14;;;;;;;8.10;2.75;;;;;;;10.28;54.63;100029.87;1718015;83;21242;-70
2022/05/17 04:20:42;;;;;;;6.37;3.05;;;;;;;10.42;53.88;100024.52;1718139;83;21486;-69
2022/05/17 04:23:10;;;;;;;8.90;2.98;;;;;;;10.52;53.77;100023.27;1718318;83;21466;-70
2022/05/17 04:25:36;;;;;;;7.10;3.10;;;;;;;10.63;53.42;100023.70;1718642;83;21037;-70
2022/05/17 04:28:04;;;;;;;7.45;3.00;;;;;;;10.76;53.05;100020.12;1718257;83;21037;-69
2022/05/17 04:30:30;;;;;;;7.83;2.92;;;;;;;10.88;52.06;100016.13;1718398;83;21330;-70
2022/05/17 04:33:01;;;;;;;9.18;3.10;;;;;;;10.98;52.22;100017.50;1718258;83;21629;-70
2022/05/17 04:35:28;;;;;;;6.50;2.33;;;;;;;11.09;51.76;100019.23;1715656;82;21116;-70
2022/05/17 04:37:55;;;;;;;7.62;2.92;;;;;;;11.19;51.46;100025.45;1718328;83;21072;-70
2022/05/17 04:43:05;;;;;;;7.87;2.60;;;;;;;11.47;51.89;100028.64;1795571;79;23414;-68
2022/05/17 04:45:32;;;;;;;9.68;3.60;;;;;;;11.59;51.33;100027.72;1787948;80;21044;-71
2022/05/17 04:47:58;;;;;;;8.25;3.02;;;;;;;11.69;50.69;100027.73;1790502;80;21222;-69
2022/05/17 04:50:25;;;;;;;5.03;2.70;;;;;;;11.82;50.58;100024.09;1790452;80;21344;-70
2022/05/17 04:52:51;;;;;;;4.75;2.65;;;;;;;11.94;49.45;100021.81;1790460;80;21612;-70
2022/05/17 04:55:19;;;;;;;4.62;2.60;;;;;;;12.01;49.15;100007.00;1790213;80;21110;-69
2022/05/17 04:57:46;;;;;;;4.65;2.50;;;;;;;12.34;49.24;100005.95;1790050;80;21064;-70
2022/05/17 05:00:18;;;;;;;9.88;3.25;;;;;;;12.65;48.79;100006.66;1790319;80;21123;-70
2022/05/17 05:02:45;;;;;;;5.30;2.65;;;;;;;12.86;48.08;100008.77;1790675;80;21032;-71
2022/05/17 05:05:11;;;;;;;8.20;2.60;;;;;;;12.98;47.35;100000.70;1790755;80;21032;-70
2022/05/17 05:07:39;;;;;;;6.25;2.47;;;;;;;13.00;46.62;100001.49;1790472;80;21573;-70
2022/05/17 05:10:07;;;;;;;4.90;2.35;;;;;;;13.01;46.03;100011.12;1790688;80;21512;-70
2022/05/17 05:12:34;;;;;;;6.45;2.33;;;;;;;12.99;46.05;100008.55;1790224;80;21216;-70
2022/05/17 05:15:00;;;;;;;5.37;2.15;;;;;;;12.99;45.94;100011.19;1790637;80;21005;-69
2022/05/17 05:17:32;;;;;;;8.08;2.65;;;;;;;13.02;45.65;100004.89;1790634;80;21079;-71
2022/05/17 05:20:00;;;;;;;7.25;2.52;;;;;;;13.21;44.46;100008.35;1791014;80;21086;-71
2022/05/17 05:22:29;;;;;;;5.15;2.10;;;;;;;13.57;44.13;100010.11;1790157;80;21056;-69
2022/05/17 05:24:56;;;;;;;6.95;1.95;;;;;;;14.21;43.07;100008.48;1762730;80;21101;-70
2022/05/17 05:27:22;;;;;;;4.85;2.40;;;;;;;14.94;40.77;100004.55;1790193;80;21056;-70
2022/05/17 05:29:49;;;;;;;4.80;2.60;;;;;;;15.51;39.14;99999.44;1790225;80;21029;-70
2022/05/17 05:32:17;;;;;;;6.67;2.65;;;;;;;15.77;39.04;99997.05;1790329;80;21064;-70
2022/05/17 05:34:44;;;;;;;5.17;2.20;;;;;;;15.81;38.60;100002.56;1790488;80;21047;-70
2022/05/17 05:37:10;;;;;;;5.37;2.55;;;;;;;15.79;39.03;100001.80;1790373;80;21222;-71
2022/05/17 05:39:37;;;;;;;6.62;1.82;;;;;;;16.08;39.03;100003.52;1790545;80;21532;-72
2022/05/17 05:42:06;;;;;;;3.62;2.10;;;;;;;16.58;39.27;99990.15;1785469;80;21581;-70
2022/05/17 05:44:34;;;;;;;4.95;2.60;;;;;;;16.95;38.07;99990.45;1779497;80;21092;-71
2022/05/17 05:47:01;;;;;;;6.12;2.60;;;;;;;17.09;37.01;99992.23;1779614;80;21664;-72
2022/05/17 05:49:27;;;;;;;8.48;2.20;;;;;;;17.35;36.22;99988.30;1779821;80;21872;-71
2022/05/17 05:51:54;;;;;;;7.90;2.70;;;;;;;17.76;35.21;99981.48;1779231;80;21033;-70
2022/05/17 05:54:20;;;;;;;6.28;2.40;;;;;;;18.23;35.13;99976.45;1778973;80;21064;-71
2022/05/17 05:56:47;;;;;;;9.18;2.20;;;;;;;18.68;34.37;99975.44;1778583;80;22073;-70
2022/05/17 05:59:13;;;;;;;9.15;2.70;;;;;;;18.86;33.86;99969.23;1778975;80;21116;-70
2022/05/17 06:01:40;;;;;;;4.22;2.05;;;;;;;19.12;33.51;99971.77;1778707;80;21624;-69
2022/05/17 06:04:08;;;;;;;9.20;2.58;;;;;;;19.42;32.06;99982.83;1778956;80;21060;-71
2022/05/17 06:06:35;;;;;;;5.90;2.58;;;;;;;19.52;31.83;99982.12;1778569;80;21029;-71
2022/05/17 06:09:03;;;;;;;7.03;2.50;;;;;;;19.58;32.53;99968.27;1778742;80;21092;-70
2022/05/17 06:11:30;;;;;;;7.97;3.12;;;;;;;19.67;32.38;99982.28;1778713;80;21549;-70
2022/05/17 06:14:00;;;;;;;6.35;3.25;;;;;;;19.85;31.56;99973.33;1762553;80;21232;-70
2022/05/17 06:16:27;;;;;;;10.43;3.62;;;;;;;19.87;31.88;99966.05;1748347;82;21664;-72
2022/05/17 06:18:54;;;;;;;8.03;3.20;;;;;;;20.04;31.66;99971.42;1747673;82;21580;-71
2022/05/17 06:21:20;;;;;;;9.05;3.50;;;;;;;20.19;30.75;99969.34;1747639;82;21573;-71
2022/05/17 06:23:47;;;;;;;14.75;4.50;;;;;;;20.18;30.76;99968.98;1747942;82;22164;-70
2022/05/17 06:26:15;;;;;;;7.25;3.20;;;;;;;20.51;31.02;99962.73;1747937;82;21723;-71
2022/05/17 06:28:42;;;;;;;6.62;3.60;;;;;;;21.04;30.33;99956.16;1747905;82;21056;-70
2022/05/17 06:31:08;;;;;;;8.75;3.72;;;;;;;21.56;29.11;99950.94;1748283;82;21091;-71
2022/05/17 06:33:35;;;;;;;12.00;4.20;;;;;;;22.08;29.07;99934.81;1747616;82;21322;-70
2022/05/17 06:36:01;;;;;;;12.93;4.22;;;;;;;22.59;27.87;99937.88;1748094;82;21076;-70
2022/05/17 06:38:28;;;;;;;8.45;3.25;;;;;;;22.83;27.27;99939.68;1747820;82;21709;-70
2022/05/17 06:40:56;;;;;;;13.20;4.15;;;;;;;22.88;25.48;99923.65;1747851;82;21481;-71
2022/05/17 06:43:23;;;;;;;9.45;3.90;;;;;;;22.83;25.72;99937.49;1752653;81;21077;-70
2022/05/17 06:45:49;;;;;;;6.80;3.52;;;;;;;22.83;25.96;99925.41;1753923;81;21055;-71
2022/05/17 06:48:18;;;;;;;6.10;3.22;;;;;;;23.00;26.02;99927.91;1753577;81;21107;-71
2022/05/17 06:50:45;;;;;;;6.87;3.35;;;;;;;22.96;25.11;99929.14;1753433;81;21242;-71
2022/05/17 06:53:11;;;;;;;6.58;2.90;;;;;;;22.84;25.22;99924.41;1753421;81;21048;-71
2022/05/17 06:55:38;;;;;;;6.35;2.62;;;;;;;22.68;24.66;99931.67;1753547;81;21068;-70
2022/05/17 06:58:05;;;;;;;8.63;2.60;;;;;;;22.65;24.31;99927.94;1753345;81;21048;-70
2022/05/17 07:00:32;;;;;;;6.55;2.85;;;;;;;22.70;24.66;99924.33;1753718;81;21685;-70
2022/05/17 07:02:59;;;;;;;6.03;2.90;;;;;;;22.61;25.21;99906.38;1753519;81;21120;-71
2022/05/17 07:05:28;;;;;;;8.28;2.08;;;;;;;22.89;24.33;99919.96;1753443;81;21024;-71
2022/05/17 07:07:54;;;;;;;5.53;1.75;;;;;;;23.00;23.86;99919.86;1753483;81;21096;-70
2022/05/17 07:13:09;;;;;;;4.53;2.15;;;;;;;23.01;23.45;99909.48;1753473;81;20992;-71
2022/05/17 07:15:40;;;;;;;4.67;1.75;;;;;;;22.69;23.46;99907.89;1753707;81;20997;-71
2022/05/17 07:18:06;;;;;;;5.05;1.92;;;;;;;22.63;23.15;99901.22;1753408;81;21091;-71
2022/05/17 07:20:34;;;;;;;2.92;1.37;;;;;;;22.57;22.68;99899.63;1753519;81;21052;-71
2022/05/17 07:23:00;;;;;;;4.95;1.98;;;;;;;22.72;22.62;99895.52;1753182;81;21104;-71
2022/05/17 07:25:27;;;;;;;4.70;1.70;;;;;;;22.82;22.48;99893.70;1753389;81;21032;-72
2022/05/17 07:27:53;;;;;;;2.50;1.50;;;;;;;22.97;22.15;99893.27;1753321;81;21184;-71
2022/05/17 07:30:20;;;;;;;5.60;1.57;;;;;;;22.91;22.26;99885.27;1753774;81;21112;-70
2022/05/17 07:32:47;;;;;;;3.95;1.12;;;;;;;23.03;22.81;99869.41;1753599;81;21104;-70
2022/05/17 07:35:14;;;;;;;3.90;1.20;;;;;;;23.16;21.87;99883.86;1753555;81;21099;-70
2022/05/17 07:37:42;;;;;;;6.25;1.25;;;;;;;23.46;21.76;99880.62;1753387;81;21084;-70
2022/05/17 07:40:12;;;;;;;6.75;0.90;;;;;;;23.46;21.62;99876.59;1753345;81;21601;-70
2022/05/17 07:42:40;;;;;;;2.87;1.30;;;;;;;23.09;21.87;99905.57;1753718;81;21486;-70
2022/05/17 07:45:09;;;;;;;7.53;1.50;;;;;;;22.71;22.44;99879.08;1753709;81;21107;-71
2022/05/17 07:47:36;;;;;;;3.05;1.47;;;;;;;22.34;22.46;99889.13;1753370;81;21532;-71
2022/05/17 07:50:06;;;;;;;5.28;1.47;;;;;;;22.28;23.30;99878.94;1753772;81;21489;-71
2022/05/17 07:52:33;;;;;;;2.35;1.00;;;;;;;22.43;23.43;99873.17;1753486;81;21132;-71
2022/05/17 07:55:00;;;;;;;2.22;1.02;;;;;;;22.54;22.86;99881.94;1753479;81;21670;-70
2022/05/17 07:57:28;;;;;;;1.92;0.57;;;;;;;22.69;21.69;99886.91;1753542;81;21012;-71
2022/05/17 07:59:55;;;;;;;1.37;0.75;;;;;;;22.53;22.22;99887.46;1753638;81;21127;-69
2022/05/17 08:02:22;;;;;;;2.05;0.85;;;;;;;22.32;22.22;99869.64;1753257;81;21048;-71
2022/05/17 08:04:50;;;;;;;10.20;0.98;;;;;;;22.07;22.58;99871.45;1753408;81;21208;-71
2022/05/17 08:07:17;;;;;;;4.72;0.85;;;;;;;21.99;22.66;99868.97;1753446;81;21040;-71
2022/05/17 08:09:46;;;;;;;1.75;0.85;;;;;;;22.08;22.41;99871.80;1753357;81;21469;-70
2022/05/17 08:12:14;;;;;;;3.37;0.80;;;;;;;22.14;22.80;99879.30;1753350;81;21008;-70
2022/05/17 08:14:41;;;;;;;2.50;0.98;;;;;;;22.39;22.52;99881.51;1779503;80;21017;-70
2022/05/17 08:17:08;;;;;;;1.65;0.60;;;;;;;22.65;22.65;99874.76;1784737;80;21220;-70
2022/05/17 08:19:37;;;;;;;5.12;0.93;;;;;;;22.60;22.48;99862.60;1784564;80;21573;-71
2022/05/17 08:22:06;;;;;;;1.65;0.70;;;;;;;22.18;22.62;99865.48;1783853;80;21118;-70
2022/05/17 08:27:31;;;;;;;4.45;1.15;;;;;;;21.89;23.16;99865.39;1784517;80;21516;-71
2022/05/17 08:29:45;;;;;;;4.87;1.50;;;;;;;21.63;24.31;99866.86;1784453;80;21248;-71
2022/05/17 08:35:00;;;;;;;7.25;3.45;;;;;;;21.26;24.06;99855.28;1784705;80;21020;-71
2022/05/17 08:37:27;;;;;;;6.53;2.50;;;;;;;21.52;24.11;99851.21;1784985;80;21017;-70
2022/05/17 08:39:53;;;;;;;7.33;2.87;;;;;;;22.11;23.65;99833.97;1784494;80;21024;-71
2022/05/17 08:42:31;;;;;;;6.53;3.30;;;;;;;22.62;23.16;99831.11;1783858;80;21088;-70
2022/05/17 08:45:02;;;;;;;8.98;3.50;;;;;;;22.93;22.47;99828.24;1777213;80;21068;-71
2022/05/17 08:47:38;;;;;;;7.87;3.02;;;;;;;22.87;22.46;99830.65;1778584;80;21029;-70
2022/05/17 08:50:09;;;;;;;8.33;2.77;;;;;;;22.99;22.94;99830.90;1778784;80;21597;-70
2022/05/17 08:52:38;;;;;;;5.62;2.65;;;;;;;23.29;22.59;99814.22;1748980;80;21131;-71
2022/05/17 08:55:23;;;;;;;12.43;4.60;;;;;;;23.22;22.59;99826.88;1778675;80;21566;-70
2022/05/17 08:57:54;;;;;;;4.35;2.30;;;;;;;23.13;22.90;99828.26;1778517;80;21572;-70
2022/05/17 09:00:43;;;;;;;11.48;1.95;;;;;;;22.66;22.33;99823.63;1778658;80;21490;-71
2022/05/17 09:03:43;;;;;;;;;;;;;;;21.90;22.83;99816.64;1781246;80;21540;-72
2022/05/17 09:06:27;;;;;;;8.40;2.55;;;;;;;21.50;24.35;99811.64;1778725;80;20205;-71
2022/05/17 09:09:00;;;;;;;7.10;2.12;;;;;;;21.72;23.79;99804.41;1778693;80;22154;-71
2022/05/17 09:11:41;;;;;;;5.33;2.10;;;;;;;21.96;23.35;99786.61;1778608;80;21017;-71
2022/05/17 09:14:16;;;;;;;6.58;2.72;;;;;;;22.04;23.58;99827.47;1759614;80;21583;-71
2022/05/17 09:16:46;;;;;;;10.23;2.90;;;;;;;22.08;22.81;99807.45;1747697;82;21092;-72
2022/05/17 09:19:16;;;;;;;6.75;2.35;;;;;;;22.06;23.10;99808.08;1748100;82;21032;-71
2022/05/17 09:21:45;;;;;;;10.40;2.55;;;;;;;22.15;23.31;99795.17;1748021;82;21227;-69
2022/05/17 09:24:16;;;;;;;8.53;2.90;;;;;;;22.10;22.93;99806.31;1748002;82;20992;-71
2022/05/17 09:26:51;;;;;;;7.45;3.62;;;;;;;21.84;23.63;99803.31;1747917;82;21084;-71
2022/05/17 09:29:30;;;;;;;9.33;3.17;;;;;;;21.53;24.29;99804.70;1748144;82;21025;-71
2022/05/17 09:32:04;;;;;;;6.12;2.55;;;;;;;21.35;24.63;99804.44;1747563;82;21037;-70
2022/05/17 09:34:38;;;;;;;5.67;2.30;;;;;;;21.43;24.69;99789.06;1748173;82;21029;-71
2022/05/17 09:37:20;;;;;;;10.95;2.75;;;;;;;21.29;24.91;99790.73;1747591;82;20989;-71
2022/05/17 09:39:52;;;;;;;7.78;2.25;;;;;;;21.28;25.45;99789.02;1747948;82;21587;-71
2022/05/17 09:42:32;;;;;;;13.05;2.60;;;;;;;21.79;24.84;99784.95;1747915;81;21114;-71
2022/05/17 09:45:05;;;;;;;6.97;2.83;;;;;;;22.31;23.40;99779.41;1748086;82;21056;-71
2022/05/17 09:47:56;;;;;;;8.33;2.47;;;;;;;22.50;23.09;99787.09;1747641;82;21240;-71
2022/05/17 09:53:10;;;;;;;8.83;2.62;;;;;;;22.25;22.96;99784.01;1702735;82;21738;-71
2022/05/17 09:55:37;;;;;;;5.78;2.42;;;;;;;21.88;23.76;99778.40;1748147;82;21608;-70
2022/05/17 09:58:10;;;;;;;7.47;2.77;;;;;;;21.69;24.47;99765.80;1747881;82;21060;-70
2022/05/17 10:00:50;;;;;;;4.53;1.62;;;;;;;21.70;24.53;99768.86;1748241;82;21808;-70
2022/05/17 10:03:34;;;;;;;9.03;2.65;;;;;;;21.73;24.44;99760.03;1747704;82;21036;-71
2022/05/17 10:06:16;;;;;;;8.80;2.62;;;;;;;21.96;24.01;99764.66;1748196;82;21017;-71
2022/05/17 10:09:07;;;;;;;9.35;2.62;;;;;;;22.33;23.51;99758.66;1747736;82;21037;-71
2022/05/17 10:11:46;;;;;;;8.30;3.30;;;;;;;22.65;22.11;99755.33;1748077;82;21633;-71
2022/05/17 10:14:36;;;;;;;6.25;2.80;;;;;;;22.63;22.79;99744.72;1767566;80;21259;-71
2022/05/17 10:17:23;;;;;;;7.62;3.42;;;;;;;22.75;23.17;99738.22;1779055;80;21321;-71
2022/05/17 10:20:05;;;;;;;10.82;3.60;;;;;;;22.90;23.29;99729.70;1778581;80;21044;-70
2022/05/17 10:22:42;;;;;;;11.18;3.40;;;;;;;22.99;23.31;99731.55;1747712;82;21045;-70
2022/05/17 10:25:44;;;;;;;12.00;4.90;;;;;;;23.12;21.91;99734.75;1747785;82;21084;-72
2022/05/17 10:28:27;;;;;;;13.20;4.40;;;;;;;22.97;22.28;99737.52;1748001;82;21857;-70
2022/05/17 10:31:11;;;;;;;8.13;2.50;;;;;;;22.71;22.87;99732.78;1746969;82;21134;-72
2022/05/17 10:34:02;;;;;;;8.65;1.90;;;;;;;22.73;23.27;99728.13;1747775;82;21084;-70
2022/05/17 10:36:46;;;;;;;;;;;;;;;22.89;22.95;99723.96;1750352;82;21083;-70
2022/05/17 10:39:27;;;;;;;4.78;2.40;;;;;;;22.91;22.19;99704.03;1748013;82;20262;-70
2022/05/17 10:41:54;;;;;;;;;;;;;;;22.71;22.31;99715.34;1750691;82;21317;-70
2022/05/17 10:44:20;;;;;;;13.05;3.90;;;;;;;22.56;23.04;99704.70;1718599;82;20192;-71
2022/05/17 10:46:56;;;;;;;5.00;2.08;;;;;;;22.32;23.48;99723.44;1747755;82;21649;-70
2022/05/17 10:49:40;;;;;;;7.55;1.40;;;;;;;22.14;23.93;99718.41;1747857;82;21028;-72
2022/05/17 10:52:23;;;;;;;5.37;1.67;;;;;;;22.10;23.31;99706.27;1747531;82;21041;-71
2022/05/17 10:55:09;;;;;;;5.47;1.65;;;;;;;22.15;22.98;99698.63;1744827;82;21369;-70
2022/05/17 10:57:54;;;;;;;6.83;2.30;;;;;;;22.32;22.88;99703.33;1747711;82;21028;-71
2022/05/17 11:00:39;;;;;;;14.15;3.35;;;;;;;22.47;23.44;99697.01;1748013;82;21700;-70
2022/05/17 11:03:41;;;;;;;8.75;3.67;;;;;;;22.40;22.65;99700.76;1747696;82;21041;-71
2022/05/17 11:06:41;;;;;;;13.72;3.45;;;;;;;22.23;22.77;99696.13;1748410;82;21049;-71
2022/05/17 11:09:25;;;;;;;14.55;3.72;;;;;;;21.87;23.22;99689.09;1748032;82;21138;-70
2022/05/17 11:12:09;;;;;;;13.48;4.83;;;;;;;21.61;22.59;99694.66;1721913;82;21111;-71
2022/05/17 11:14:45;;;;;;;11.38;3.95;;;;;;;21.05;23.41;99690.16;1772470;80;21091;-70
2022/05/17 11:17:52;;;;;;;8.15;3.15;;;;;;;20.84;24.57;99696.02;1779077;80;21068;-71
2022/05/17 11:20:27;;;;;;;10.50;2.42;;;;;;;20.76;24.54;99687.34;1778740;80;21578;-72
2022/05/17 11:23:42;;;;;;;10.13;2.90;;;;;;;20.82;24.28;99681.92;1748978;80;21095;-70
2022/05/17 11:27:00;;;;;;;13.68;3.67;;;;;;;21.08;24.40;99682.34;1716677;82;21057;-71
2022/05/17 11:30:04;;;;;;;12.23;3.83;;;;;;;21.21;23.45;99688.32;1778692;80;21051;-70
2022/05/17 11:32:34;;;;;;;9.43;5.22;;;;;;;21.03;23.87;99682.75;1778592;80;21481;-71
2022/05/17 11:35:03;;;;;;;20.82;6.00;;;;;;;21.03;22.82;99675.22;1778745;80;21045;-71
2022/05/17 11:37:44;;;;;;;13.25;3.77;;;;;;;21.18;22.65;99678.36;1778679;80;21169;-72
2022/05/17 11:40:11;;;;;;;16.20;4.97;;;;;;;21.22;21.53;99667.73;1778807;80;21052;-70
2022/05/17 11:45:44;;;;;;;13.53;3.72;;;;;;;21.23;22.27;99665.40;1778867;80;21161;-70
2022/05/17 11:48:16;;;;;;;20.27;3.33;;;;;;;21.50;21.88;99650.91;1779010;80;21025;-71
2022/05/17 11:50:58;;;;;;;13.50;3.22;;;;;;;21.74;20.99;99644.30;1778605;79;21101;-70
2022/05/17 11:53:30;;;;;;;9.53;2.72;;;;;;;21.86;20.96;99648.55;1778443;80;21553;-69
2022/05/17 11:56:21;;;;;;;12.93;2.00;;;;;;;22.08;21.20;99659.47;1778856;80;20982;-69
2022/05/17 11:58:53;;;;;;;5.47;2.00;;;;;;;22.27;21.66;99657.31;1777020;80;21020;-69
2022/05/17 12:01:35;;;;;;;7.83;2.10;;;;;;;22.56;21.40;99638.45;1779136;80;21037;-70
2022/05/17 12:04:09;;;;;;;7.72;1.80;;;;;;;22.80;21.68;99628.56;1778293;80;21153;-71
2022/05/17 12:06:41;;;;;;;7.90;2.52;;;;;;;22.96;21.54;99628.41;1778397;79;21041;-70
2022/05/17 12:09:16;;;;;;;13.40;2.50;;;;;;;23.05;20.41;99619.48;1778547;80;21639;-70